createdAt,value
2022-10-02T00:02:25.670Z,61.72
2022-10-02T00:04:55.016Z,61.47
2022-10-02T00:07:27.263Z,61.36
2022-10-02T00:09:56.501Z,61.38
2022-10-02T00:12:25.594Z,61.33
2022-10-02T00:14:54.611Z,61.23
2022-10-02T00:17:24.214Z,61.43
2022-10-02T00:19:54.879Z,61.59
2022-10-02T00:22:33.346Z,61.35
2022-10-02T00:25:04.630Z,61.44
2022-10-02T00:27:44.934Z,61.09
2022-10-02T00:30:14.169Z,60.93
2022-10-02T00:32:45.530Z,61.34
2022-10-02T00:35:32.642Z,60.96
2022-10-02T00:38:04.177Z,61.39
2022-10-02T00:40:38.932Z,61.01
2022-10-02T00:43:11.221Z,60.92
2022-10-02T00:45:46.475Z,61.13
2022-10-02T00:48:24.469Z,60.96
2022-10-02T00:50:54.612Z,61.16
2022-10-02T00:53:28.982Z,60.93
2022-10-02T00:56:05.861Z,60.76
2022-10-02T00:58:42.216Z,60.69
2022-10-02T01:01:12.955Z,60.91
2022-10-02T01:03:41.362Z,61.03
2022-10-02T01:06:09.482Z,60.80
2022-10-02T01:08:38.753Z,60.75
2022-10-02T01:11:06.877Z,60.48
2022-10-02T01:13:34.819Z,60.86
2022-10-02T01:16:03.349Z,60.90
2022-10-02T01:18:31.378Z,60.80
2022-10-02T01:21:00.948Z,60.60
2022-10-02T01:23:31.735Z,60.76
2022-10-02T01:26:01.045Z,60.50
2022-10-02T01:28:29.038Z,60.54
2022-10-02T01:31:00.928Z,60.50
2022-10-02T01:33:29.083Z,60.32
2022-10-02T01:35:56.973Z,60.46
2022-10-02T01:38:24.888Z,60.51
2022-10-02T01:40:52.780Z,60.06
2022-10-02T01:43:23.092Z,60.13
2022-10-02T01:45:58.853Z,60.18
2022-10-02T01:48:43.252Z,59.72
2022-10-02T01:51:20.404Z,59.97
2022-10-02T01:53:50.118Z,59.83
2022-10-02T01:56:20.456Z,59.94
2022-10-02T01:58:55.489Z,59.77
2022-10-02T02:01:30.280Z,59.74
2022-10-02T02:04:00.996Z,59.83
2022-10-02T02:06:31.400Z,59.45
2022-10-02T02:09:05.360Z,59.75
2022-10-02T02:11:33.302Z,59.56
2022-10-02T02:14:04.319Z,59.52
2022-10-02T02:16:33.734Z,59.47
2022-10-02T02:19:05.385Z,59.21
2022-10-02T02:21:34.644Z,59.41
2022-10-02T02:24:05.834Z,59.32
2022-10-02T02:26:34.030Z,59.25
2022-10-02T02:29:04.323Z,59.48
2022-10-02T02:31:34.260Z,59.28
2022-10-02T02:34:03.413Z,59.28
2022-10-02T02:36:34.325Z,59.56
2022-10-02T02:39:06.269Z,59.14
2022-10-02T02:41:35.689Z,59.16
2022-10-02T02:44:07.498Z,59.14
2022-10-02T02:46:58.102Z,59.25
2022-10-02T02:49:26.275Z,59.28
2022-10-02T02:51:54.178Z,59.27
2022-10-02T02:54:23.956Z,59.03
2022-10-02T02:56:51.886Z,58.96
2022-10-02T02:59:21.245Z,59.44
2022-10-02T03:01:49.193Z,59.09
2022-10-02T03:04:17.212Z,59.27
2022-10-02T03:06:45.949Z,59.30
2022-10-02T03:09:14.639Z,59.12
2022-10-02T03:11:49.918Z,59.09
2022-10-02T03:14:42.529Z,59.31
2022-10-02T03:17:16.773Z,59.49
2022-10-02T03:19:46.601Z,59.28
2022-10-02T03:22:17.505Z,59.58
2022-10-02T03:24:48.078Z,59.40
2022-10-02T03:27:18.793Z,59.45
2022-10-02T03:29:50.064Z,59.45
2022-10-02T03:32:17.987Z,59.48
2022-10-02T03:34:45.932Z,59.31
2022-10-02T03:37:13.824Z,59.27
2022-10-02T03:39:42.150Z,59.51
2022-10-02T03:42:10.585Z,59.35
2022-10-02T03:44:38.595Z,59.63
2022-10-02T03:47:07.877Z,59.66
2022-10-02T03:49:35.936Z,59.67
2022-10-02T03:52:03.863Z,59.23
2022-10-02T03:54:33.069Z,59.53
2022-10-02T03:57:04.929Z,59.33
2022-10-02T03:59:41.184Z,59.52
2022-10-02T04:02:13.561Z,59.34
2022-10-02T04:04:45.018Z,59.42
2022-10-02T04:07:15.041Z,59.37
2022-10-02T04:09:44.861Z,59.84
2022-10-02T04:12:14.249Z,59.77
2022-10-02T04:14:45.096Z,59.72
2022-10-02T04:17:15.465Z,59.44
2022-10-02T04:19:46.251Z,59.85
2022-10-02T04:22:16.500Z,59.76
2022-10-02T04:24:47.089Z,59.58
2022-10-02T04:27:16.465Z,59.68
2022-10-02T04:29:46.190Z,59.82
2022-10-02T04:32:16.086Z,59.78
2022-10-02T04:34:43.960Z,59.58
2022-10-02T04:37:31.941Z,59.65
2022-10-02T04:40:10.595Z,59.84
2022-10-02T04:42:50.535Z,59.38
2022-10-02T04:45:27.610Z,59.63
2022-10-02T04:48:28.677Z,59.50
2022-10-02T04:50:58.790Z,59.68
2022-10-02T04:53:35.404Z,59.36
2022-10-02T04:56:18.967Z,59.41
2022-10-02T04:58:55.965Z,59.36
2022-10-02T05:01:31.025Z,59.55
2022-10-02T05:04:16.012Z,59.40
2022-10-02T05:06:52.596Z,59.28
2022-10-02T05:09:28.314Z,59.21
2022-10-02T05:12:13.735Z,59.17
2022-10-02T05:14:52.988Z,58.68
2022-10-02T05:17:31.811Z,58.97
2022-10-02T05:20:16.549Z,58.85
2022-10-02T05:22:53.207Z,58.75
2022-10-02T05:25:32.255Z,58.96
2022-10-02T05:28:22.084Z,58.99
2022-10-02T05:30:52.059Z,58.73
2022-10-02T05:33:36.583Z,58.89
2022-10-02T05:36:18.187Z,58.68
2022-10-02T05:38:59.695Z,58.63
2022-10-02T05:41:38.206Z,58.82
2022-10-02T05:44:07.932Z,58.84
2022-10-02T05:46:38.513Z,59.15
2022-10-02T05:49:07.876Z,59.53
2022-10-02T05:51:41.479Z,59.48
2022-10-02T05:54:15.974Z,59.44
2022-10-02T05:56:45.769Z,59.66
2022-10-02T05:59:15.267Z,59.35
2022-10-02T06:01:44.840Z,59.57
2022-10-02T06:04:14.635Z,59.53
2022-10-02T06:06:47.318Z,59.69
2022-10-02T06:09:19.774Z,59.74
2022-10-02T06:11:49.769Z,59.41
2022-10-02T06:14:21.775Z,59.41
2022-10-02T06:16:52.656Z,59.55
2022-10-02T06:19:23.004Z,59.76
2022-10-02T06:21:52.724Z,59.55
2022-10-02T06:24:22.909Z,59.68
2022-10-02T06:26:52.639Z,59.75
2022-10-02T06:29:27.013Z,60.06
2022-10-02T06:31:58.162Z,59.75
2022-10-02T06:34:26.140Z,59.67
2022-10-02T06:37:21.773Z,59.83
2022-10-02T06:39:59.594Z,59.63
2022-10-02T06:42:34.253Z,59.99
2022-10-02T06:45:06.167Z,59.70
2022-10-02T06:47:54.194Z,59.56
2022-10-02T06:50:30.446Z,59.62
2022-10-02T06:53:03.865Z,59.64
2022-10-02T06:55:41.646Z,59.67
2022-10-02T06:58:21.706Z,59.80
2022-10-02T07:00:52.965Z,59.59
2022-10-02T07:04:04.159Z,59.61
2022-10-02T07:06:40.789Z,59.68
2022-10-02T07:09:43.274Z,59.30
2022-10-02T07:12:24.295Z,59.26
2022-10-02T07:15:00.900Z,59.28
2022-10-02T07:17:35.135Z,59.23
2022-10-02T07:20:32.164Z,59.24
2022-10-02T07:23:32.692Z,59.46
2022-10-02T07:26:10.573Z,59.40
2022-10-02T07:28:42.260Z,59.43
2022-10-02T07:31:15.569Z,59.15
2022-10-02T07:33:56.912Z,59.21
2022-10-02T07:36:27.992Z,59.04
2022-10-02T07:39:04.258Z,59.17
2022-10-02T07:41:42.849Z,58.97
2022-10-02T07:44:17.665Z,59.15
2022-10-02T07:46:49.744Z,59.20
2022-10-02T07:49:25.364Z,58.86
2022-10-02T07:51:56.891Z,58.88
2022-10-02T07:54:55.459Z,58.95
2022-10-02T07:57:34.285Z,58.98
2022-10-02T08:00:06.569Z,58.93
2022-10-02T08:02:37.902Z,58.98
2022-10-02T08:05:07.452Z,58.94
2022-10-02T08:07:35.373Z,58.71
2022-10-02T08:10:06.518Z,59.06
2022-10-02T08:12:39.110Z,58.67
2022-10-02T08:15:08.286Z,58.49
2022-10-02T08:17:38.961Z,58.95
2022-10-02T08:20:09.254Z,58.51
2022-10-02T08:22:38.784Z,58.53
2022-10-02T08:25:08.961Z,58.66
2022-10-02T08:27:48.081Z,58.68
2022-10-02T08:30:16.291Z,58.62
2022-10-02T08:32:45.109Z,59.00
2022-10-02T08:35:14.172Z,58.88
2022-10-02T08:37:47.106Z,59.40
2022-10-02T08:40:33.442Z,58.84
2022-10-02T08:43:25.888Z,58.95
2022-10-02T08:46:25.507Z,58.90
2022-10-02T08:49:36.197Z,58.66
2022-10-02T08:52:44.525Z,58.67
2022-10-02T08:55:38.392Z,58.76
2022-10-02T08:58:52.513Z,59.30
2022-10-02T09:01:31.060Z,59.01
2022-10-02T09:04:28.429Z,59.00
2022-10-02T09:07:35.384Z,58.94
2022-10-02T09:10:46.097Z,58.71
2022-10-02T09:13:40.997Z,58.68
2022-10-02T09:16:11.768Z,58.57
2022-10-02T09:18:50.194Z,58.54
2022-10-02T09:21:18.773Z,58.31
2022-10-02T09:24:18.716Z,58.08
2022-10-02T09:27:14.818Z,58.22
2022-10-02T09:30:02.717Z,58.07
2022-10-02T09:32:53.901Z,57.98
2022-10-02T09:35:57.805Z,58.01
2022-10-02T09:39:01.688Z,58.05
2022-10-02T09:42:19.995Z,57.71
2022-10-02T09:45:28.588Z,57.59
2022-10-02T09:48:12.158Z,56.50
2022-10-02T09:51:16.603Z,56.06
2022-10-02T09:54:22.015Z,56.02
2022-10-02T09:57:31.864Z,56.18
2022-10-02T10:00:15.349Z,56.21
2022-10-02T10:03:15.834Z,56.30
2022-10-02T10:05:55.860Z,56.09
2022-10-02T10:08:45.803Z,55.81
2022-10-02T10:11:38.188Z,55.80
2022-10-02T10:14:19.717Z,56.02
2022-10-02T10:17:14.337Z,56.11
2022-10-02T10:20:12.671Z,56.06
2022-10-02T10:23:01.245Z,55.21
2022-10-02T10:25:39.216Z,55.08
2022-10-02T10:28:55.274Z,54.84
2022-10-02T10:32:12.867Z,55.07
2022-10-02T10:35:17.141Z,55.26
2022-10-02T10:38:13.441Z,55.41
2022-10-02T10:41:06.300Z,54.93
2022-10-02T10:44:24.696Z,53.39
2022-10-02T10:47:16.037Z,52.79
2022-10-02T10:50:20.572Z,53.80
2022-10-02T10:53:11.774Z,55.85
2022-10-02T10:55:51.869Z,54.79
2022-10-02T10:58:22.340Z,55.48
2022-10-02T11:01:01.254Z,56.17
2022-10-02T11:03:58.462Z,55.31
2022-10-02T11:06:37.986Z,54.17
2022-10-02T11:09:36.681Z,54.22
2022-10-02T11:12:24.681Z,52.60
2022-10-02T11:15:00.383Z,51.31
2022-10-02T11:17:40.671Z,50.70
2022-10-02T11:20:17.249Z,49.57
2022-10-02T11:23:02.055Z,48.49
2022-10-02T11:25:44.081Z,47.68
2022-10-02T11:28:48.496Z,46.19
2022-10-02T11:31:26.250Z,45.31
2022-10-02T11:34:13.801Z,44.81
2022-10-02T11:36:50.209Z,44.68
2022-10-02T11:39:29.982Z,44.89
2022-10-02T11:42:19.512Z,45.29
2022-10-02T11:45:04.207Z,44.06
2022-10-02T11:47:42.898Z,43.26
2022-10-02T11:50:41.375Z,45.27
2022-10-02T11:53:32.170Z,46.68
2022-10-02T11:56:12.850Z,45.78
2022-10-02T11:58:46.176Z,45.88
2022-10-02T12:01:22.018Z,45.83
2022-10-02T12:03:54.279Z,44.83
2022-10-02T12:06:30.054Z,44.30
2022-10-02T12:09:02.206Z,43.75
2022-10-02T12:11:34.589Z,43.88
2022-10-02T12:14:10.958Z,43.50
2022-10-02T12:16:50.109Z,40.79
2022-10-02T12:19:25.795Z,40.27
2022-10-02T12:22:14.338Z,40.71
2022-10-02T12:25:03.284Z,41.08
2022-10-02T12:27:38.330Z,39.49
2022-10-02T12:30:09.724Z,39.06
2022-10-02T12:33:04.112Z,38.58
2022-10-02T12:35:39.702Z,37.58
2022-10-02T12:38:15.347Z,37.82
2022-10-02T12:40:48.098Z,35.92
2022-10-02T12:43:46.487Z,35.86
2022-10-02T12:46:53.112Z,35.89
2022-10-02T12:49:29.477Z,35.48
2022-10-02T12:52:13.221Z,33.81
2022-10-02T12:55:29.221Z,34.77
2022-10-02T12:58:02.711Z,34.00
2022-10-02T13:00:33.585Z,34.77
2022-10-02T13:04:01.325Z,35.24
2022-10-02T13:06:58.909Z,35.14
2022-10-02T13:09:39.147Z,34.68
2022-10-02T13:12:25.906Z,34.35
2022-10-02T13:15:04.066Z,33.60
2022-10-02T13:17:36.032Z,33.90
2022-10-02T13:20:11.779Z,33.27
2022-10-02T13:22:43.565Z,32.89
2022-10-02T13:25:32.068Z,32.27
2022-10-02T13:28:08.431Z,32.68
2022-10-02T13:30:37.051Z,32.45
2022-10-02T13:33:13.732Z,31.25
2022-10-02T13:35:57.976Z,31.59
2022-10-02T13:38:42.884Z,31.47
2022-10-02T13:41:17.651Z,31.04
2022-10-02T13:44:07.139Z,30.77
2022-10-02T13:46:44.706Z,30.86
2022-10-02T13:49:18.056Z,30.23
2022-10-02T13:51:48.961Z,29.67
2022-10-02T13:54:26.960Z,29.56
2022-10-02T13:56:58.108Z,29.58
2022-10-02T13:59:37.031Z,29.36
2022-10-02T14:02:13.647Z,29.23
2022-10-02T14:04:48.671Z,28.55
2022-10-02T14:07:28.475Z,28.05
2022-10-02T14:10:00.456Z,27.78
2022-10-02T14:12:30.978Z,28.04
2022-10-02T14:15:15.349Z,28.10
2022-10-02T14:17:49.218Z,28.29
2022-10-02T14:20:24.385Z,28.12
2022-10-02T14:23:14.160Z,27.64
2022-10-02T14:25:50.952Z,27.55
2022-10-02T14:28:40.004Z,27.50
2022-10-02T14:31:14.662Z,27.07
2022-10-02T14:33:54.733Z,26.94
2022-10-02T14:36:25.097Z,26.49
2022-10-02T14:39:01.146Z,26.88
2022-10-02T14:41:49.144Z,26.53
2022-10-02T14:44:39.621Z,26.60
2022-10-02T14:47:17.322Z,26.75
2022-10-02T14:49:59.728Z,26.61
2022-10-02T14:52:36.351Z,26.79
2022-10-02T14:55:16.941Z,26.56
2022-10-02T14:58:01.690Z,26.89
2022-10-02T15:00:32.449Z,26.63
2022-10-02T15:03:11.700Z,26.52
2022-10-02T15:05:49.891Z,26.52
2022-10-02T15:08:18.932Z,26.75
2022-10-02T15:10:49.220Z,26.57
2022-10-02T15:13:26.772Z,26.29
2022-10-02T15:16:11.437Z,26.32
2022-10-02T15:18:41.946Z,26.10
2022-10-02T15:21:19.710Z,25.73
2022-10-02T15:23:48.857Z,26.19
2022-10-02T15:26:27.477Z,26.27
2022-10-02T15:29:00.350Z,26.47
2022-10-02T15:31:36.877Z,26.64
2022-10-02T15:34:11.303Z,26.93
2022-10-02T15:36:55.494Z,27.31
2022-10-02T15:39:40.590Z,27.28
2022-10-02T15:42:09.340Z,27.19
2022-10-02T15:45:01.757Z,27.65
2022-10-02T15:47:41.120Z,28.56
2022-10-02T15:50:20.516Z,29.27
2022-10-02T15:52:53.092Z,30.31
2022-10-02T15:55:23.376Z,31.24
2022-10-02T15:58:01.474Z,31.66
2022-10-02T16:00:29.970Z,32.36
2022-10-02T16:03:13.338Z,32.89
2022-10-02T16:05:48.077Z,33.55
2022-10-02T16:08:55.694Z,33.72
2022-10-02T16:11:40.486Z,33.99
2022-10-02T16:14:10.396Z,34.13
2022-10-02T16:17:24.242Z,34.62
2022-10-02T16:20:06.117Z,34.62
2022-10-02T16:22:41.359Z,35.27
2022-10-02T16:25:21.643Z,35.27
2022-10-02T16:27:56.969Z,35.66
2022-10-02T16:30:25.062Z,36.27
2022-10-02T16:33:20.045Z,36.60
2022-10-02T16:35:58.556Z,36.88
2022-10-02T16:38:32.678Z,37.09
2022-10-02T16:41:05.731Z,37.19
2022-10-02T16:43:44.769Z,37.35
2022-10-02T16:46:17.340Z,37.61
2022-10-02T16:48:50.978Z,37.77
2022-10-02T16:51:35.366Z,38.18
2022-10-02T16:54:12.837Z,38.23
2022-10-02T16:56:45.180Z,38.41
2022-10-02T16:59:15.468Z,38.44
2022-10-02T17:01:59.388Z,38.76
2022-10-02T17:04:44.742Z,38.72
2022-10-02T17:07:32.311Z,38.79
2022-10-02T17:10:06.140Z,38.89
2022-10-02T17:12:38.253Z,38.93
2022-10-02T17:15:09.839Z,39.02
2022-10-02T17:17:49.111Z,39.28
2022-10-02T17:20:20.154Z,39.38
2022-10-02T17:22:55.479Z,39.41
2022-10-02T17:25:29.677Z,39.66
2022-10-02T17:27:59.273Z,39.77
2022-10-02T17:30:28.902Z,40.03
2022-10-02T17:33:07.697Z,40.05
2022-10-02T17:35:40.523Z,40.07
2022-10-02T17:38:27.848Z,40.24
2022-10-02T17:40:59.218Z,40.43
2022-10-02T17:43:31.095Z,40.52
2022-10-02T17:46:07.011Z,40.84
2022-10-02T17:48:40.885Z,40.70
2022-10-02T17:51:52.211Z,40.63
2022-10-02T17:54:55.774Z,40.92
2022-10-02T17:57:34.702Z,41.10
2022-10-02T18:00:13.328Z,41.22
2022-10-02T18:03:01.509Z,41.49
2022-10-02T18:05:34.266Z,41.58
2022-10-02T18:08:10.530Z,41.42
2022-10-02T18:10:44.166Z,41.60
2022-10-02T18:13:33.553Z,41.73
2022-10-02T18:16:14.286Z,41.84
2022-10-02T18:18:43.052Z,41.99
2022-10-02T18:21:21.354Z,42.34
2022-10-02T18:24:00.720Z,42.38
2022-10-02T18:26:35.225Z,42.75
2022-10-02T18:29:19.838Z,42.83
2022-10-02T18:31:57.845Z,43.00
2022-10-02T18:34:43.652Z,43.16
2022-10-02T18:37:28.715Z,43.23
2022-10-02T18:40:06.977Z,43.13
2022-10-02T18:42:46.261Z,43.23
2022-10-02T18:45:27.429Z,43.29
2022-10-02T18:48:00.508Z,43.23
2022-10-02T18:50:39.551Z,43.68
2022-10-02T18:53:26.263Z,43.98
2022-10-02T18:56:06.705Z,44.05
2022-10-02T18:59:03.249Z,44.02
2022-10-02T19:01:40.911Z,44.07
2022-10-02T19:04:19.804Z,44.11
2022-10-02T19:06:50.571Z,44.62
2022-10-02T19:09:22.334Z,44.27
2022-10-02T19:11:56.277Z,44.29
2022-10-02T19:14:33.627Z,44.79
2022-10-02T19:17:02.514Z,44.48
2022-10-02T19:19:30.544Z,44.87
2022-10-02T19:22:01.085Z,44.94
2022-10-02T19:24:30.037Z,45.27
2022-10-02T19:26:59.686Z,45.17
2022-10-02T19:29:31.800Z,45.62
2022-10-02T19:32:00.883Z,45.60
2022-10-02T19:34:30.576Z,45.34
2022-10-02T19:36:59.971Z,45.53
2022-10-02T19:39:30.571Z,45.48
2022-10-02T19:41:59.000Z,45.67
2022-10-02T19:44:29.448Z,45.81
2022-10-02T19:46:58.826Z,46.04
2022-10-02T19:49:28.471Z,46.33
2022-10-02T19:51:57.058Z,46.04
2022-10-02T19:54:26.812Z,46.64
2022-10-02T19:56:57.596Z,46.52
2022-10-02T19:59:27.190Z,46.49
2022-10-02T20:01:58.432Z,46.63
2022-10-02T20:04:27.845Z,46.48
2022-10-02T20:06:57.381Z,46.46
2022-10-02T20:09:28.365Z,46.71
2022-10-02T20:11:59.515Z,46.71
2022-10-02T20:14:29.012Z,46.79
2022-10-02T20:17:09.214Z,46.68
2022-10-02T20:19:39.912Z,46.85
2022-10-02T20:22:12.533Z,47.10
2022-10-02T20:24:44.717Z,46.83
2022-10-02T20:27:14.149Z,47.04
2022-10-02T20:29:46.578Z,47.01
2022-10-02T20:32:17.828Z,47.04
2022-10-02T20:34:48.364Z,47.38
2022-10-02T20:37:18.479Z,47.42
2022-10-02T20:39:48.419Z,47.65
2022-10-02T20:42:18.414Z,47.25
2022-10-02T20:44:46.321Z,47.60
2022-10-02T20:47:53.378Z,47.76
2022-10-02T20:50:33.850Z,47.91
2022-10-02T20:53:30.654Z,48.08
2022-10-02T20:56:00.094Z,47.70
2022-10-02T20:58:36.077Z,48.23
2022-10-02T21:01:17.685Z,48.09
2022-10-02T21:04:07.231Z,48.27
2022-10-02T21:06:47.476Z,48.42
2022-10-02T21:10:00.913Z,48.23
2022-10-02T21:13:03.175Z,48.12
2022-10-02T21:15:53.653Z,48.26
2022-10-02T21:19:04.592Z,48.31
2022-10-02T21:22:01.625Z,48.43
2022-10-02T21:24:58.229Z,48.41
2022-10-02T21:28:05.458Z,48.14
2022-10-02T21:30:34.490Z,48.38
2022-10-02T21:33:05.587Z,48.58
2022-10-02T21:35:37.872Z,48.72
2022-10-02T21:38:33.857Z,48.62
2022-10-02T21:41:26.983Z,48.51
2022-10-02T21:44:33.639Z,48.50
2022-10-02T21:47:37.434Z,48.70
2022-10-02T21:50:32.425Z,48.58
2022-10-02T21:53:22.176Z,48.76
2022-10-02T21:56:22.413Z,48.87
2022-10-02T21:59:23.552Z,48.85
2022-10-02T22:02:36.370Z,49.05
2022-10-02T22:05:40.791Z,48.97
2022-10-02T22:08:14.208Z,48.92
2022-10-02T22:10:44.962Z,49.24
2022-10-02T22:13:21.099Z,49.06
2022-10-02T22:15:53.942Z,48.82
2022-10-02T22:18:25.267Z,49.21
2022-10-02T22:21:01.318Z,49.18
2022-10-02T22:23:41.018Z,49.41
2022-10-02T22:26:14.935Z,49.42
2022-10-02T22:28:45.647Z,49.35
2022-10-02T22:31:37.106Z,49.61
2022-10-02T22:34:12.711Z,49.26
2022-10-02T22:36:51.615Z,49.66
2022-10-02T22:39:22.888Z,49.41
2022-10-02T22:41:54.333Z,49.63
2022-10-02T22:44:25.970Z,49.69
2022-10-02T22:46:56.562Z,49.85
2022-10-02T22:49:27.482Z,49.62
2022-10-02T22:52:00.520Z,49.63
2022-10-02T22:54:32.784Z,49.86
2022-10-02T22:57:09.730Z,50.07
2022-10-02T22:59:42.072Z,50.18
2022-10-02T23:02:12.220Z,50.23
2022-10-02T23:04:44.509Z,50.11
2022-10-02T23:07:16.445Z,49.99
2022-10-02T23:09:48.458Z,50.45
2022-10-02T23:12:18.324Z,50.52
2022-10-02T23:14:58.017Z,50.37
2022-10-02T23:17:27.549Z,50.55
2022-10-02T23:19:57.649Z,50.56
2022-10-02T23:22:29.149Z,50.58
2022-10-02T23:25:01.410Z,50.87
2022-10-02T23:27:32.360Z,50.52
2022-10-02T23:30:03.663Z,50.48
2022-10-02T23:32:33.789Z,50.64
2022-10-02T23:35:05.062Z,50.98
2022-10-02T23:37:38.648Z,50.91
2022-10-02T23:40:15.017Z,51.21
2022-10-02T23:42:44.603Z,51.28
2022-10-02T23:45:18.241Z,51.39
2022-10-02T23:47:54.739Z,51.38
2022-10-02T23:50:23.824Z,51.39
2022-10-02T23:52:58.464Z,51.53
2022-10-02T23:55:37.852Z,51.17
2022-10-02T23:58:26.953Z,51.33
